sensor_id;sensor_type;location;lat;lon;timestamp;P1;durP1;ratioP1;P2;durP2;ratioP2
45358;SDS011;31096;49.292;8.710;2023-04-24T00:04:46;3.90;;;1.80;;
45358;SDS011;31096;49.292;8.710;2023-04-24T00:09:38;4.40;;;2.00;;
45358;SDS011;31096;49.292;8.710;2023-04-24T00:14:30;3.38;;;1.58;;
45358;SDS011;31096;49.292;8.710;2023-04-24T00:19:21;4.97;;;1.50;;
45358;SDS011;31096;49.292;8.710;2023-04-24T00:24:12;4.33;;;1.97;;
45358;SDS011;31096;49.292;8.710;2023-04-24T00:29:02;4.37;;;2.03;;
45358;SDS011;31096;49.292;8.710;2023-04-24T00:33:54;3.53;;;1.80;;
45358;SDS011;31096;49.292;8.710;2023-04-24T00:38:44;4.23;;;1.60;;
45358;SDS011;31096;49.292;8.710;2023-04-24T00:43:35;3.63;;;1.67;;
45358;SDS011;31096;49.292;8.710;2023-04-24T00:48:26;3.93;;;1.73;;
45358;SDS011;31096;49.292;8.710;2023-04-24T00:53:17;3.85;;;2.13;;
45358;SDS011;31096;49.292;8.710;2023-04-24T00:58:07;3.67;;;1.73;;
45358;SDS011;31096;49.292;8.710;2023-04-24T01:02:59;4.40;;;1.80;;
45358;SDS011;31096;49.292;8.710;2023-04-24T01:07:51;4.78;;;2.03;;
45358;SDS011;31096;49.292;8.710;2023-04-24T01:12:42;3.97;;;1.80;;
45358;SDS011;31096;49.292;8.710;2023-04-24T01:17:33;3.55;;;1.85;;
45358;SDS011;31096;49.292;8.710;2023-04-24T01:22:23;3.20;;;1.67;;
45358;SDS011;31096;49.292;8.710;2023-04-24T01:27:14;4.03;;;1.80;;
45358;SDS011;31096;49.292;8.710;2023-04-24T01:32:05;3.78;;;1.80;;
45358;SDS011;31096;49.292;8.710;2023-04-24T01:36:57;5.40;;;1.90;;
45358;SDS011;31096;49.292;8.710;2023-04-24T01:41:48;3.73;;;2.00;;
45358;SDS011;31096;49.292;8.710;2023-04-24T01:46:40;3.95;;;1.70;;
45358;SDS011;31096;49.292;8.710;2023-04-24T01:51:31;3.50;;;1.83;;
45358;SDS011;31096;49.292;8.710;2023-04-24T01:56:22;3.30;;;1.70;;
45358;SDS011;31096;49.292;8.710;2023-04-24T02:01:19;3.33;;;1.57;;
45358;SDS011;31096;49.292;8.710;2023-04-24T02:06:10;3.05;;;1.35;;
45358;SDS011;31096;49.292;8.710;2023-04-24T02:11:01;4.77;;;2.30;;
45358;SDS011;31096;49.292;8.710;2023-04-24T02:15:52;3.30;;;1.60;;
45358;SDS011;31096;49.292;8.710;2023-04-24T02:20:43;3.10;;;1.40;;
45358;SDS011;31096;49.292;8.710;2023-04-24T02:25:33;5.53;;;1.55;;
45358;SDS011;31096;49.292;8.710;2023-04-24T02:30:24;3.53;;;1.40;;
45358;SDS011;31096;49.292;8.710;2023-04-24T02:35:15;3.67;;;1.83;;
45358;SDS011;31096;49.292;8.710;2023-04-24T02:40:06;4.73;;;1.70;;
45358;SDS011;31096;49.292;8.710;2023-04-24T02:44:58;3.30;;;1.52;;
45358;SDS011;31096;49.292;8.710;2023-04-24T02:49:49;3.30;;;1.80;;
45358;SDS011;31096;49.292;8.710;2023-04-24T02:54:39;3.37;;;1.70;;
45358;SDS011;31096;49.292;8.710;2023-04-24T02:59:30;3.63;;;1.63;;
45358;SDS011;31096;49.292;8.710;2023-04-24T03:04:21;6.07;;;2.40;;
45358;SDS011;31096;49.292;8.710;2023-04-24T03:09:12;3.63;;;1.70;;
45358;SDS011;31096;49.292;8.710;2023-04-24T03:14:03;5.30;;;2.23;;
45358;SDS011;31096;49.292;8.710;2023-04-24T03:18:54;4.15;;;1.90;;
45358;SDS011;31096;49.292;8.710;2023-04-24T03:23:44;4.13;;;1.80;;
45358;SDS011;31096;49.292;8.710;2023-04-24T03:28:35;5.93;;;2.10;;
45358;SDS011;31096;49.292;8.710;2023-04-24T03:33:26;3.67;;;1.90;;
45358;SDS011;31096;49.292;8.710;2023-04-24T03:38:16;4.40;;;2.10;;
45358;SDS011;31096;49.292;8.710;2023-04-24T03:43:07;4.47;;;2.27;;
45358;SDS011;31096;49.292;8.710;2023-04-24T03:47:58;5.35;;;2.17;;
45358;SDS011;31096;49.292;8.710;2023-04-24T03:52:48;4.67;;;2.20;;
45358;SDS011;31096;49.292;8.710;2023-04-24T03:57:42;4.03;;;2.40;;
45358;SDS011;31096;49.292;8.710;2023-04-24T04:02:33;5.10;;;2.45;;
45358;SDS011;31096;49.292;8.710;2023-04-24T04:07:23;4.43;;;2.00;;
45358;SDS011;31096;49.292;8.710;2023-04-24T04:12:14;4.80;;;3.10;;
45358;SDS011;31096;49.292;8.710;2023-04-24T04:17:05;4.03;;;2.30;;
45358;SDS011;31096;49.292;8.710;2023-04-24T04:21:55;3.90;;;2.10;;
45358;SDS011;31096;49.292;8.710;2023-04-24T04:26:46;4.20;;;2.70;;
45358;SDS011;31096;49.292;8.710;2023-04-24T04:31:37;4.35;;;2.33;;
45358;SDS011;31096;49.292;8.710;2023-04-24T04:36:28;6.83;;;2.90;;
45358;SDS011;31096;49.292;8.710;2023-04-24T04:41:19;4.75;;;2.72;;
45358;SDS011;31096;49.292;8.710;2023-04-24T04:46:11;4.70;;;2.83;;
45358;SDS011;31096;49.292;8.710;2023-04-24T04:51:02;5.28;;;3.10;;
45358;SDS011;31096;49.292;8.710;2023-04-24T04:55:52;4.67;;;2.77;;
45358;SDS011;31096;49.292;8.710;2023-04-24T05:00:43;4.07;;;2.20;;
45358;SDS011;31096;49.292;8.710;2023-04-24T05:05:34;8.32;;;3.00;;
45358;SDS011;31096;49.292;8.710;2023-04-24T05:10:24;4.53;;;2.80;;
45358;SDS011;31096;49.292;8.710;2023-04-24T05:15:15;4.35;;;2.85;;
45358;SDS011;31096;49.292;8.710;2023-04-24T05:20:06;6.13;;;2.60;;
45358;SDS011;31096;49.292;8.710;2023-04-24T05:24:58;6.22;;;2.67;;
45358;SDS011;31096;49.292;8.710;2023-04-24T05:29:48;4.87;;;2.93;;
45358;SDS011;31096;49.292;8.710;2023-04-24T05:34:39;4.90;;;2.97;;
45358;SDS011;31096;49.292;8.710;2023-04-24T05:39:30;6.05;;;3.15;;
45358;SDS011;31096;49.292;8.710;2023-04-24T05:44:20;5.23;;;2.80;;
45358;SDS011;31096;49.292;8.710;2023-04-24T05:49:11;5.40;;;2.97;;
45358;SDS011;31096;49.292;8.710;2023-04-24T05:54:02;4.53;;;2.80;;
45358;SDS011;31096;49.292;8.710;2023-04-24T05:58:53;3.87;;;2.17;;
45358;SDS011;31096;49.292;8.710;2023-04-24T06:03:43;5.03;;;3.10;;
45358;SDS011;31096;49.292;8.710;2023-04-24T06:08:35;5.10;;;3.10;;
45358;SDS011;31096;49.292;8.710;2023-04-24T06:13:26;5.82;;;3.10;;
45358;SDS011;31096;49.292;8.710;2023-04-24T06:18:16;4.30;;;2.27;;
45358;SDS011;31096;49.292;8.710;2023-04-24T06:23:07;4.97;;;2.50;;
45358;SDS011;31096;49.292;8.710;2023-04-24T06:27:58;4.43;;;2.70;;
45358;SDS011;31096;49.292;8.710;2023-04-24T06:32:49;4.00;;;2.72;;
45358;SDS011;31096;49.292;8.710;2023-04-24T06:37:40;4.90;;;2.70;;
45358;SDS011;31096;49.292;8.710;2023-04-24T06:42:32;4.43;;;2.45;;
45358;SDS011;31096;49.292;8.710;2023-04-24T06:47:23;5.93;;;2.70;;
45358;SDS011;31096;49.292;8.710;2023-04-24T06:52:14;4.18;;;2.60;;
45358;SDS011;31096;49.292;8.710;2023-04-24T06:57:05;5.23;;;2.90;;
45358;SDS011;31096;49.292;8.710;2023-04-24T07:01:56;4.68;;;2.88;;
45358;SDS011;31096;49.292;8.710;2023-04-24T07:06:47;4.30;;;2.58;;
45358;SDS011;31096;49.292;8.710;2023-04-24T07:11:39;4.43;;;2.50;;
45358;SDS011;31096;49.292;8.710;2023-04-24T07:16:30;4.78;;;2.92;;
45358;SDS011;31096;49.292;8.710;2023-04-24T07:21:21;5.13;;;3.00;;
45358;SDS011;31096;49.292;8.710;2023-04-24T07:26:12;4.97;;;2.78;;
45358;SDS011;31096;49.292;8.710;2023-04-24T07:31:04;4.63;;;2.50;;
45358;SDS011;31096;49.292;8.710;2023-04-24T07:35:55;3.65;;;2.00;;
45358;SDS011;31096;49.292;8.710;2023-04-24T07:40:46;3.83;;;2.17;;
45358;SDS011;31096;49.292;8.710;2023-04-24T07:45:37;4.43;;;2.35;;
45358;SDS011;31096;49.292;8.710;2023-04-24T07:50:29;3.93;;;2.30;;
45358;SDS011;31096;49.292;8.710;2023-04-24T07:55:21;4.10;;;2.28;;
45358;SDS011;31096;49.292;8.710;2023-04-24T08:00:12;4.22;;;2.67;;
45358;SDS011;31096;49.292;8.710;2023-04-24T08:05:04;4.80;;;2.50;;
45358;SDS011;31096;49.292;8.710;2023-04-24T08:09:55;3.67;;;2.00;;
45358;SDS011;31096;49.292;8.710;2023-04-24T08:14:46;3.60;;;2.20;;
45358;SDS011;31096;49.292;8.710;2023-04-24T08:19:40;4.27;;;2.50;;
45358;SDS011;31096;49.292;8.710;2023-04-24T08:24:37;4.93;;;2.30;;
45358;SDS011;31096;49.292;8.710;2023-04-24T08:29:28;4.17;;;2.30;;
45358;SDS011;31096;49.292;8.710;2023-04-24T08:34:19;4.00;;;2.42;;
45358;SDS011;31096;49.292;8.710;2023-04-24T08:39:09;4.03;;;2.50;;
45358;SDS011;31096;49.292;8.710;2023-04-24T08:44:01;4.63;;;2.50;;
45358;SDS011;31096;49.292;8.710;2023-04-24T08:48:52;11.33;;;2.03;;
45358;SDS011;31096;49.292;8.710;2023-04-24T08:53:43;3.97;;;2.03;;
45358;SDS011;31096;49.292;8.710;2023-04-24T08:58:34;5.80;;;2.25;;
45358;SDS011;31096;49.292;8.710;2023-04-24T09:03:27;4.23;;;2.20;;
45358;SDS011;31096;49.292;8.710;2023-04-24T09:08:19;4.07;;;2.30;;
45358;SDS011;31096;49.292;8.710;2023-04-24T09:13:10;4.25;;;2.47;;
45358;SDS011;31096;49.292;8.710;2023-04-24T09:18:01;3.60;;;1.93;;
45358;SDS011;31096;49.292;8.710;2023-04-24T09:22:59;4.85;;;2.22;;
45358;SDS011;31096;49.292;8.710;2023-04-24T09:27:50;4.25;;;1.80;;
45358;SDS011;31096;49.292;8.710;2023-04-24T09:32:44;5.03;;;2.13;;
45358;SDS011;31096;49.292;8.710;2023-04-24T09:37:36;3.93;;;2.40;;
45358;SDS011;31096;49.292;8.710;2023-04-24T09:42:36;4.15;;;2.20;;
45358;SDS011;31096;49.292;8.710;2023-04-24T09:47:27;4.37;;;2.20;;
45358;SDS011;31096;49.292;8.710;2023-04-24T09:52:30;6.40;;;2.28;;
45358;SDS011;31096;49.292;8.710;2023-04-24T09:57:21;3.67;;;2.20;;
45358;SDS011;31096;49.292;8.710;2023-04-24T10:02:18;4.60;;;2.43;;
45358;SDS011;31096;49.292;8.710;2023-04-24T10:07:10;4.32;;;2.45;;
45358;SDS011;31096;49.292;8.710;2023-04-24T10:12:02;4.30;;;2.60;;
45358;SDS011;31096;49.292;8.710;2023-04-24T10:16:54;4.20;;;2.05;;
45358;SDS011;31096;49.292;8.710;2023-04-24T10:21:48;6.50;;;2.57;;
45358;SDS011;31096;49.292;8.710;2023-04-24T10:26:41;4.38;;;2.33;;
45358;SDS011;31096;49.292;8.710;2023-04-24T10:31:32;7.38;;;3.08;;
45358;SDS011;31096;49.292;8.710;2023-04-24T10:36:23;4.30;;;2.70;;
45358;SDS011;31096;49.292;8.710;2023-04-24T10:41:16;5.18;;;3.10;;
45358;SDS011;31096;49.292;8.710;2023-04-24T10:46:16;4.90;;;2.70;;
45358;SDS011;31096;49.292;8.710;2023-04-24T10:51:12;5.00;;;2.97;;
45358;SDS011;31096;49.292;8.710;2023-04-24T10:56:07;4.95;;;3.08;;
45358;SDS011;31096;49.292;8.710;2023-04-24T11:01:03;5.07;;;3.28;;
45358;SDS011;31096;49.292;8.710;2023-04-24T11:06:04;4.97;;;2.83;;
45358;SDS011;31096;49.292;8.710;2023-04-24T11:10:57;5.80;;;3.42;;
45358;SDS011;31096;49.292;8.710;2023-04-24T11:16:13;5.30;;;3.45;;
45358;SDS011;31096;49.292;8.710;2023-04-24T11:21:11;6.70;;;3.33;;
45358;SDS011;31096;49.292;8.710;2023-04-24T11:26:13;4.85;;;2.90;;
45358;SDS011;31096;49.292;8.710;2023-04-24T11:36:28;9.47;;;3.20;;
45358;SDS011;31096;49.292;8.710;2023-04-24T11:41:22;5.43;;;3.10;;
45358;SDS011;31096;49.292;8.710;2023-04-24T11:46:15;5.05;;;2.85;;
45358;SDS011;31096;49.292;8.710;2023-04-24T11:51:07;4.80;;;2.70;;
45358;SDS011;31096;49.292;8.710;2023-04-24T11:56:02;5.15;;;2.90;;
45358;SDS011;31096;49.292;8.710;2023-04-24T12:00:57;6.78;;;3.38;;
45358;SDS011;31096;49.292;8.710;2023-04-24T12:05:48;5.07;;;3.30;;
45358;SDS011;31096;49.292;8.710;2023-04-24T12:10:39;4.90;;;3.22;;
45358;SDS011;31096;49.292;8.710;2023-04-24T12:15:29;6.80;;;3.23;;
45358;SDS011;31096;49.292;8.710;2023-04-24T12:20:26;4.80;;;2.80;;
45358;SDS011;31096;49.292;8.710;2023-04-24T12:25:21;5.37;;;3.37;;
45358;SDS011;31096;49.292;8.710;2023-04-24T12:30:15;5.73;;;3.30;;
45358;SDS011;31096;49.292;8.710;2023-04-24T12:35:06;5.25;;;3.13;;
45358;SDS011;31096;49.292;8.710;2023-04-24T12:40:07;5.60;;;3.28;;
45358;SDS011;31096;49.292;8.710;2023-04-24T12:45:01;4.23;;;2.80;;
45358;SDS011;31096;49.292;8.710;2023-04-24T12:49:56;5.82;;;3.35;;
45358;SDS011;31096;49.292;8.710;2023-04-24T12:54:47;7.40;;;2.83;;
45358;SDS011;31096;49.292;8.710;2023-04-24T12:59:37;4.53;;;2.50;;
45358;SDS011;31096;49.292;8.710;2023-04-24T13:04:29;5.45;;;2.95;;
45358;SDS011;31096;49.292;8.710;2023-04-24T13:09:19;4.93;;;3.00;;
45358;SDS011;31096;49.292;8.710;2023-04-24T13:14:10;5.53;;;2.80;;
45358;SDS011;31096;49.292;8.710;2023-04-24T13:19:01;5.38;;;3.35;;
45358;SDS011;31096;49.292;8.710;2023-04-24T13:23:52;5.10;;;3.00;;
45358;SDS011;31096;49.292;8.710;2023-04-24T13:28:43;5.90;;;3.40;;
45358;SDS011;31096;49.292;8.710;2023-04-24T13:33:34;4.67;;;3.17;;
45358;SDS011;31096;49.292;8.710;2023-04-24T13:38:26;5.07;;;3.10;;
45358;SDS011;31096;49.292;8.710;2023-04-24T13:43:18;4.50;;;2.80;;
45358;SDS011;31096;49.292;8.710;2023-04-24T13:48:10;6.35;;;3.28;;
45358;SDS011;31096;49.292;8.710;2023-04-24T13:53:01;4.87;;;3.10;;
45358;SDS011;31096;49.292;8.710;2023-04-24T13:57:52;4.90;;;2.47;;
45358;SDS011;31096;49.292;8.710;2023-04-24T14:02:45;4.78;;;2.83;;
45358;SDS011;31096;49.292;8.710;2023-04-24T14:07:35;4.93;;;3.27;;
45358;SDS011;31096;49.292;8.710;2023-04-24T14:12:26;5.13;;;3.08;;
45358;SDS011;31096;49.292;8.710;2023-04-24T14:17:17;5.20;;;2.93;;
45358;SDS011;31096;49.292;8.710;2023-04-24T14:22:08;4.90;;;2.70;;
45358;SDS011;31096;49.292;8.710;2023-04-24T14:26:59;5.50;;;2.53;;
45358;SDS011;31096;49.292;8.710;2023-04-24T14:31:51;6.13;;;3.10;;
45358;SDS011;31096;49.292;8.710;2023-04-24T14:36:42;5.03;;;2.90;;
45358;SDS011;31096;49.292;8.710;2023-04-24T14:41:33;6.20;;;3.20;;
45358;SDS011;31096;49.292;8.710;2023-04-24T14:46:29;5.40;;;3.30;;
45358;SDS011;31096;49.292;8.710;2023-04-24T14:51:20;5.45;;;2.90;;
45358;SDS011;31096;49.292;8.710;2023-04-24T14:56:11;6.63;;;3.20;;
45358;SDS011;31096;49.292;8.710;2023-04-24T15:01:02;5.03;;;3.17;;
45358;SDS011;31096;49.292;8.710;2023-04-24T15:05:53;4.90;;;2.65;;
45358;SDS011;31096;49.292;8.710;2023-04-24T15:10:44;5.37;;;3.10;;
45358;SDS011;31096;49.292;8.710;2023-04-24T15:15:34;7.15;;;3.00;;
45358;SDS011;31096;49.292;8.710;2023-04-24T15:20:26;4.40;;;2.83;;
45358;SDS011;31096;49.292;8.710;2023-04-24T15:25:16;4.57;;;2.70;;
45358;SDS011;31096;49.292;8.710;2023-04-24T15:30:08;5.33;;;3.13;;
45358;SDS011;31096;49.292;8.710;2023-04-24T15:35:02;7.68;;;2.92;;
45358;SDS011;31096;49.292;8.710;2023-04-24T15:39:53;5.53;;;2.53;;
45358;SDS011;31096;49.292;8.710;2023-04-24T15:44:44;5.80;;;3.20;;
45358;SDS011;31096;49.292;8.710;2023-04-24T15:49:35;4.40;;;2.80;;
45358;SDS011;31096;49.292;8.710;2023-04-24T15:54:25;5.53;;;2.97;;
45358;SDS011;31096;49.292;8.710;2023-04-24T15:59:17;5.30;;;2.90;;
45358;SDS011;31096;49.292;8.710;2023-04-24T16:04:07;5.78;;;2.63;;
45358;SDS011;31096;49.292;8.710;2023-04-24T16:08:58;7.47;;;2.90;;
45358;SDS011;31096;49.292;8.710;2023-04-24T16:13:49;5.00;;;2.97;;
45358;SDS011;31096;49.292;8.710;2023-04-24T16:18:40;7.22;;;2.85;;
45358;SDS011;31096;49.292;8.710;2023-04-24T16:23:31;5.07;;;3.10;;
45358;SDS011;31096;49.292;8.710;2023-04-24T16:28:22;4.97;;;2.55;;
45358;SDS011;31096;49.292;8.710;2023-04-24T16:33:13;5.87;;;3.07;;
45358;SDS011;31096;49.292;8.710;2023-04-24T16:38:04;4.53;;;2.92;;
45358;SDS011;31096;49.292;8.710;2023-04-24T16:42:56;4.53;;;2.50;;
45358;SDS011;31096;49.292;8.710;2023-04-24T16:47:47;4.07;;;2.40;;
45358;SDS011;31096;49.292;8.710;2023-04-24T16:52:37;4.80;;;2.50;;
45358;SDS011;31096;49.292;8.710;2023-04-24T16:57:28;4.57;;;2.30;;
45358;SDS011;31096;49.292;8.710;2023-04-24T17:02:19;4.82;;;2.28;;
45358;SDS011;31096;49.292;8.710;2023-04-24T17:07:10;4.17;;;2.37;;
45358;SDS011;31096;49.292;8.710;2023-04-24T17:12:01;3.93;;;2.40;;
45358;SDS011;31096;49.292;8.710;2023-04-24T17:16:51;4.13;;;2.55;;
45358;SDS011;31096;49.292;8.710;2023-04-24T17:21:42;4.73;;;2.80;;
45358;SDS011;31096;49.292;8.710;2023-04-24T17:26:41;5.53;;;2.30;;
45358;SDS011;31096;49.292;8.710;2023-04-24T17:31:32;6.07;;;3.38;;
45358;SDS011;31096;49.292;8.710;2023-04-24T17:36:23;7.30;;;3.47;;
45358;SDS011;31096;49.292;8.710;2023-04-24T17:41:14;4.97;;;2.72;;
45358;SDS011;31096;49.292;8.710;2023-04-24T17:46:05;6.43;;;3.73;;
45358;SDS011;31096;49.292;8.710;2023-04-24T17:50:56;5.43;;;3.50;;
45358;SDS011;31096;49.292;8.710;2023-04-24T17:55:47;4.80;;;2.77;;
45358;SDS011;31096;49.292;8.710;2023-04-24T18:00:38;5.63;;;2.53;;
45358;SDS011;31096;49.292;8.710;2023-04-24T18:05:29;6.73;;;2.93;;
45358;SDS011;31096;49.292;8.710;2023-04-24T18:10:22;4.60;;;2.85;;
45358;SDS011;31096;49.292;8.710;2023-04-24T18:15:14;4.30;;;2.40;;
45358;SDS011;31096;49.292;8.710;2023-04-24T18:20:05;3.73;;;2.37;;
45358;SDS011;31096;49.292;8.710;2023-04-24T18:24:56;4.15;;;2.47;;
45358;SDS011;31096;49.292;8.710;2023-04-24T18:29:47;5.23;;;3.10;;
45358;SDS011;31096;49.292;8.710;2023-04-24T18:34:38;5.00;;;2.75;;
45358;SDS011;31096;49.292;8.710;2023-04-24T18:39:28;4.60;;;2.60;;
45358;SDS011;31096;49.292;8.710;2023-04-24T18:44:19;5.35;;;2.25;;
45358;SDS011;31096;49.292;8.710;2023-04-24T18:49:11;4.37;;;2.27;;
45358;SDS011;31096;49.292;8.710;2023-04-24T18:54:02;4.55;;;2.97;;
45358;SDS011;31096;49.292;8.710;2023-04-24T18:58:53;4.53;;;2.53;;
45358;SDS011;31096;49.292;8.710;2023-04-24T19:03:44;4.45;;;2.60;;
45358;SDS011;31096;49.292;8.710;2023-04-24T19:08:35;5.03;;;2.40;;
45358;SDS011;31096;49.292;8.710;2023-04-24T19:13:27;5.60;;;2.70;;
45358;SDS011;31096;49.292;8.710;2023-04-24T19:18:18;4.70;;;2.80;;
45358;SDS011;31096;49.292;8.710;2023-04-24T19:23:08;5.27;;;2.60;;
45358;SDS011;31096;49.292;8.710;2023-04-24T19:27:59;5.50;;;3.13;;
45358;SDS011;31096;49.292;8.710;2023-04-24T19:32:50;4.97;;;3.05;;
45358;SDS011;31096;49.292;8.710;2023-04-24T19:37:40;4.30;;;2.57;;
45358;SDS011;31096;49.292;8.710;2023-04-24T19:42:31;5.70;;;2.87;;
45358;SDS011;31096;49.292;8.710;2023-04-24T19:47:22;4.63;;;2.57;;
45358;SDS011;31096;49.292;8.710;2023-04-24T19:52:13;4.65;;;2.50;;
45358;SDS011;31096;49.292;8.710;2023-04-24T19:57:04;4.60;;;2.33;;
45358;SDS011;31096;49.292;8.710;2023-04-24T20:01:54;4.27;;;2.40;;
45358;SDS011;31096;49.292;8.710;2023-04-24T20:06:45;4.33;;;2.20;;
45358;SDS011;31096;49.292;8.710;2023-04-24T20:11:36;4.22;;;2.55;;
45358;SDS011;31096;49.292;8.710;2023-04-24T20:16:27;5.63;;;2.50;;
45358;SDS011;31096;49.292;8.710;2023-04-24T20:21:17;4.67;;;2.37;;
45358;SDS011;31096;49.292;8.710;2023-04-24T20:26:08;4.88;;;2.63;;
45358;SDS011;31096;49.292;8.710;2023-04-24T20:31:00;5.00;;;2.97;;
45358;SDS011;31096;49.292;8.710;2023-04-24T20:35:51;6.45;;;2.72;;
45358;SDS011;31096;49.292;8.710;2023-04-24T20:40:41;7.13;;;3.47;;
45358;SDS011;31096;49.292;8.710;2023-04-24T20:45:32;8.20;;;3.40;;
45358;SDS011;31096;49.292;8.710;2023-04-24T20:50:23;4.43;;;2.70;;
45358;SDS011;31096;49.292;8.710;2023-04-24T20:55:14;5.15;;;3.08;;
45358;SDS011;31096;49.292;8.710;2023-04-24T21:00:06;4.40;;;2.50;;
45358;SDS011;31096;49.292;8.710;2023-04-24T21:04:57;4.20;;;2.70;;
45358;SDS011;31096;49.292;8.710;2023-04-24T21:09:49;4.63;;;2.13;;
45358;SDS011;31096;49.292;8.710;2023-04-24T21:14:40;4.30;;;2.70;;
45358;SDS011;31096;49.292;8.710;2023-04-24T21:19:30;6.13;;;2.58;;
45358;SDS011;31096;49.292;8.710;2023-04-24T21:24:21;4.20;;;2.30;;
45358;SDS011;31096;49.292;8.710;2023-04-24T21:29:12;4.20;;;2.87;;
45358;SDS011;31096;49.292;8.710;2023-04-24T21:34:02;5.25;;;2.85;;
45358;SDS011;31096;49.292;8.710;2023-04-24T21:38:53;5.17;;;3.10;;
45358;SDS011;31096;49.292;8.710;2023-04-24T21:43:44;4.57;;;2.80;;
45358;SDS011;31096;49.292;8.710;2023-04-24T21:48:35;4.37;;;2.40;;
45358;SDS011;31096;49.292;8.710;2023-04-24T21:53:25;4.47;;;2.57;;
45358;SDS011;31096;49.292;8.710;2023-04-24T21:58:18;4.80;;;2.85;;
45358;SDS011;31096;49.292;8.710;2023-04-24T22:03:09;6.20;;;2.67;;
45358;SDS011;31096;49.292;8.710;2023-04-24T22:08:00;4.70;;;3.20;;
45358;SDS011;31096;49.292;8.710;2023-04-24T22:12:50;6.00;;;3.43;;
45358;SDS011;31096;49.292;8.710;2023-04-24T22:17:41;4.97;;;3.03;;
45358;SDS011;31096;49.292;8.710;2023-04-24T22:22:33;5.03;;;3.13;;
45358;SDS011;31096;49.292;8.710;2023-04-24T22:27:24;5.43;;;3.20;;
45358;SDS011;31096;49.292;8.710;2023-04-24T22:32:15;4.80;;;2.87;;
45358;SDS011;31096;49.292;8.710;2023-04-24T22:37:06;6.32;;;3.58;;
45358;SDS011;31096;49.292;8.710;2023-04-24T22:41:57;5.43;;;3.27;;
45358;SDS011;31096;49.292;8.710;2023-04-24T22:46:47;5.20;;;3.57;;
45358;SDS011;31096;49.292;8.710;2023-04-24T22:51:38;5.53;;;3.28;;
45358;SDS011;31096;49.292;8.710;2023-04-24T22:56:30;5.28;;;3.40;;
45358;SDS011;31096;49.292;8.710;2023-04-24T23:01:23;5.43;;;3.20;;
45358;SDS011;31096;49.292;8.710;2023-04-24T23:06:16;7.80;;;3.65;;
45358;SDS011;31096;49.292;8.710;2023-04-24T23:11:06;5.35;;;3.28;;
45358;SDS011;31096;49.292;8.710;2023-04-24T23:15:57;6.10;;;3.95;;
45358;SDS011;31096;49.292;8.710;2023-04-24T23:20:48;4.77;;;3.13;;
45358;SDS011;31096;49.292;8.710;2023-04-24T23:25:38;5.45;;;3.33;;
45358;SDS011;31096;49.292;8.710;2023-04-24T23:30:29;5.93;;;3.58;;
45358;SDS011;31096;49.292;8.710;2023-04-24T23:35:20;6.50;;;3.90;;
45358;SDS011;31096;49.292;8.710;2023-04-24T23:40:11;5.15;;;3.53;;
45358;SDS011;31096;49.292;8.710;2023-04-24T23:45:02;5.13;;;3.20;;
45358;SDS011;31096;49.292;8.710;2023-04-24T23:49:54;5.22;;;3.13;;
45358;SDS011;31096;49.292;8.710;2023-04-24T23:54:45;6.07;;;2.97;;
45358;SDS011;31096;49.292;8.710;2023-04-24T23:59:36;5.63;;;3.13;;
